Time;durP1;ratioP1;P1;durP2;ratioP2;P2;SDS_P1;SDS_P2;PMS_P1;PMS_P2;Temp;Humidity;BMP_temperature;BMP_pressure;BME280_temperature;BME280_humidity;BME280_pressure;Samples;Min_cycle;Max_cycle;Signal;HPM_P1;HPM_P2
2023/01/07 00:01:21;;;;;;;34.72;9.55;;;;;;;5.66;100.00;101302.16;4900446;29;20032;-73
2023/01/07 00:03:47;;;;;;;31.50;11.02;;;;;;;5.67;100.00;101297.63;4917239;29;20099;-73
2023/01/07 00:06:17;;;;;;;23.95;8.98;;;;;;;5.69;100.00;101291.19;4900101;29;20031;-73
2023/01/07 00:08:44;;;;;;;47.08;10.65;;;;;;;5.68;100.00;101294.84;4900196;29;20028;-73
2023/01/07 00:11:16;;;;;;;38.33;10.52;;;;;;;5.64;100.00;101293.38;4916454;29;20028;-73
2023/01/07 00:13:43;;;;;;;24.45;9.75;;;;;;;5.79;100.00;101290.47;4900260;29;20056;-72
2023/01/07 00:16:12;;;;;;;33.45;11.23;;;;;;;5.82;100.00;101295.63;4900325;29;20035;-73
2023/01/07 00:18:38;;;;;;;29.75;10.13;;;;;;;5.73;100.00;101287.28;4936000;29;20070;-72
2023/01/07 00:21:07;;;;;;;29.92;9.57;;;;;;;5.63;100.00;101283.59;4935602;29;20019;-73
2023/01/07 00:23:34;;;;;;;23.45;9.85;;;;;;;5.66;100.00;101287.88;4935953;29;20016;-73
2023/01/07 00:26:19;;;;;;;40.47;11.07;;;;;;;5.71;100.00;101300.00;4934546;29;20538;-73
2023/01/07 00:28:46;;;;;;;27.75;9.45;;;;;;;5.63;100.00;101297.03;4918716;29;20487;-73
2023/01/07 00:31:14;;;;;;;33.05;10.85;;;;;;;5.63;100.00;101297.03;4918208;29;20102;-73
2023/01/07 00:33:48;;;;;;;24.33;9.30;;;;;;;5.74;100.00;101282.78;4918905;29;20043;-73
2023/01/07 00:36:13;;;;;;;27.13;10.65;;;;;;;5.72;100.00;101285.56;4918810;29;20038;-73
2023/01/07 00:38:38;;;;;;;30.42;10.90;;;;;;;5.72;100.00;101293.63;4918605;29;20036;-73
2023/01/07 00:41:04;;;;;;;28.52;10.55;;;;;;;5.69;100.00;101290.34;4935640;29;20090;-72
2023/01/07 00:43:30;;;;;;;26.17;10.98;;;;;;;5.75;100.00;101283.66;4935627;29;20023;-73
2023/01/07 00:45:55;;;;;;;27.40;10.57;;;;;;;5.67;100.00;101285.09;4918175;29;20074;-71
2023/01/07 00:48:22;;;;;;;34.30;11.60;;;;;;;5.64;100.00;101282.63;4918136;29;20398;-72
2023/01/07 00:50:49;;;;;;;29.98;11.20;;;;;;;5.62;100.00;101289.94;4934016;29;20038;-73
2023/01/07 00:53:15;;;;;;;30.20;11.40;;;;;;;5.73;100.00;101291.81;4918336;29;20027;-72
2023/01/07 00:55:40;;;;;;;25.00;11.20;;;;;;;5.70;100.00;101287.53;4935020;29;20034;-72
2023/01/07 00:58:06;;;;;;;32.95;13.45;;;;;;;5.53;100.00;101279.88;4918260;29;20059;-73
2023/01/07 01:00:31;;;;;;;40.30;12.55;;;;;;;5.62;100.00;101284.59;4935081;29;20031;-72
2023/01/07 01:02:58;;;;;;;33.88;13.20;;;;;;;5.54;100.00;101292.38;4935218;29;20027;-72
2023/01/07 01:05:24;;;;;;;43.42;14.15;;;;;;;5.60;100.00;101286.50;4933937;29;20019;-72
2023/01/07 01:07:49;;;;;;;36.35;14.13;;;;;;;5.65;100.00;101283.47;4918152;29;20126;-72
2023/01/07 01:10:17;;;;;;;37.05;14.20;;;;;;;5.62;100.00;101273.84;4933712;29;20095;-72
2023/01/07 01:12:43;;;;;;;34.10;13.18;;;;;;;5.78;100.00;101272.66;4917901;29;20028;-72
2023/01/07 01:15:13;;;;;;;34.05;14.15;;;;;;;5.86;100.00;101264.84;4917849;29;20050;-73
2023/01/07 01:17:39;;;;;;;39.72;13.88;;;;;;;5.78;100.00;101265.44;4905688;29;20027;-73
2023/01/07 01:20:08;;;;;;;31.48;13.50;;;;;;;5.97;100.00;101267.59;4914686;29;20031;-72
2023/01/07 01:22:33;;;;;;;35.13;14.43;;;;;;;5.85;100.00;101263.16;4914603;29;20024;-73
2023/01/07 01:24:59;;;;;;;38.58;17.25;;;;;;;5.65;100.00;101268.22;4915578;29;20051;-72
2023/01/07 01:27:24;;;;;;;46.92;17.08;;;;;;;5.61;100.00;101260.53;4898850;29;20067;-71
2023/01/07 01:29:50;;;;;;;46.05;17.58;;;;;;;5.63;100.00;101264.78;4899067;29;20032;-73
2023/01/07 01:32:15;;;;;;;46.28;17.13;;;;;;;5.71;100.00;101257.00;4898786;29;20459;-73
2023/01/07 01:34:41;;;;;;;44.60;18.55;;;;;;;5.67;100.00;101250.16;4914373;29;20042;-72
2023/01/07 01:37:06;;;;;;;47.78;18.83;;;;;;;5.72;100.00;101242.59;4898508;29;20088;-73
2023/01/07 01:39:31;;;;;;;46.40;20.30;;;;;;;5.66;100.00;101259.19;4915506;29;20035;-72
2023/01/07 01:41:57;;;;;;;53.22;21.13;;;;;;;5.56;100.00;101252.81;4915600;29;20032;-72
2023/01/07 01:44:44;;;;;;;60.95;20.98;;;;;;;5.54;100.00;101254.78;4898951;29;20111;-72
2023/01/07 01:47:19;;;;;;;57.15;22.73;;;;;;;5.75;100.00;101246.03;4895277;29;20062;-72
2023/01/07 01:49:55;;;;;;;57.75;21.85;;;;;;;5.67;100.00;101255.53;4911178;29;20043;-73
2023/01/07 01:52:27;;;;;;;62.17;25.15;;;;;;;5.69;100.00;101258.97;4914111;29;20749;-72
2023/01/07 01:54:57;;;;;;;68.22;25.77;;;;;;;5.79;100.00;101252.88;4914224;29;20118;-72
2023/01/07 01:57:26;;;;;;;63.17;24.92;;;;;;;5.75;100.00;101251.41;4897642;29;20106;-73
2023/01/07 01:59:52;;;;;;;64.38;26.00;;;;;;;5.88;100.00;101257.56;4898768;29;20040;-72
2023/01/07 02:02:24;;;;;;;68.70;26.38;;;;;;;5.91;100.00;101254.66;4915264;29;20027;-73
2023/01/07 02:04:52;;;;;;;64.15;27.08;;;;;;;5.89;100.00;101248.50;4898244;29;20024;-72
2023/01/07 02:07:18;;;;;;;55.80;25.88;;;;;;;5.88;100.00;101246.81;4898375;29;20123;-73
2023/01/07 02:09:45;;;;;;;69.97;27.02;;;;;;;5.91;100.00;101247.44;4898213;29;20115;-72
2023/01/07 02:12:35;;;;;;;60.97;27.50;;;;;;;6.04;100.00;101241.97;4898253;29;20032;-73
2023/01/07 02:15:09;;;;;;;64.47;25.67;;;;;;;6.20;100.00;101236.25;4897609;29;20024;-72
2023/01/07 02:17:51;;;;;;;69.28;26.70;;;;;;;6.19;100.00;101230.03;4926346;29;20123;-72
2023/01/07 02:20:46;;;;;;;65.80;26.30;;;;;;;6.15;100.00;101233.91;4933044;29;20067;-72
2023/01/07 02:23:47;;;;;;;70.18;28.33;;;;;;;6.30;100.00;101233.69;4911176;29;20078;-72
2023/01/07 02:26:33;;;;;;;68.18;28.55;;;;;;;6.18;100.00;101233.66;4947625;29;20049;-72
2023/01/07 02:29:13;;;;;;;66.25;29.77;;;;;;;6.24;100.00;101227.81;4936177;29;20028;-72
2023/01/07 02:32:17;;;;;;;68.32;28.42;;;;;;;6.26;100.00;101225.00;4932651;29;20066;-73
2023/01/07 02:34:52;;;;;;;79.07;31.63;;;;;;;6.31;100.00;101230.00;4931901;29;20024;-74
2023/01/07 02:37:28;;;;;;;73.13;28.92;;;;;;;6.34;100.00;101211.81;4916557;29;20047;-73
2023/01/07 02:40:08;;;;;;;64.53;28.35;;;;;;;6.41;100.00;101217.56;4916685;29;20027;-73
2023/01/07 02:43:01;;;;;;;77.65;31.23;;;;;;;6.39;100.00;101212.31;4933512;29;20031;-74
2023/01/07 02:45:29;;;;;;;77.75;31.13;;;;;;;6.38;100.00;101201.63;4916685;29;20016;-73
2023/01/07 02:48:07;;;;;;;72.30;31.90;;;;;;;6.47;100.00;101195.53;4916561;29;20051;-74
2023/01/07 02:50:33;;;;;;;84.70;31.75;;;;;;;6.41;100.00;101196.03;4931485;29;20391;-73
2023/01/07 02:52:58;;;;;;;83.15;34.75;;;;;;;6.48;100.00;101191.88;4917037;29;20028;-73
2023/01/07 02:55:53;;;;;;;82.53;34.08;;;;;;;6.40;100.00;101188.94;4916437;29;20104;-72
2023/01/07 02:58:37;;;;;;;91.57;37.00;;;;;;;6.30;100.00;101193.34;4916482;29;20027;-73
2023/01/07 03:01:27;;;;;;;95.85;36.78;;;;;;;6.31;100.00;101189.66;4932031;29;20028;-73
2023/01/07 03:04:19;;;;;;;86.25;34.80;;;;;;;6.29;100.00;101194.31;4929349;29;20131;-72
2023/01/07 03:07:35;;;;;;;94.00;37.08;;;;;;;6.40;100.00;101184.44;4916253;29;20024;-72
2023/01/07 03:10:08;;;;;;;104.68;38.42;;;;;;;6.40;100.00;101178.19;4877205;29;20103;-72
2023/01/07 03:12:53;;;;;;;101.70;38.50;;;;;;;6.41;100.00;101179.91;4926777;29;20094;-72
2023/01/07 03:15:26;;;;;;;95.35;36.63;;;;;;;6.49;100.00;101177.44;4933387;29;20020;-73
2023/01/07 03:17:57;;;;;;;93.30;36.83;;;;;;;6.66;100.00;101163.47;4912945;29;20064;-73
2023/01/07 03:20:23;;;;;;;100.07;36.30;;;;;;;6.78;100.00;101167.84;4928871;29;20467;-72
2023/01/07 03:22:51;;;;;;;94.72;39.95;;;;;;;6.72;100.00;101168.34;4928542;29;20024;-73
2023/01/07 03:25:20;;;;;;;106.18;39.70;;;;;;;6.73;100.00;101167.38;4928350;29;20084;-73
2023/01/07 03:27:48;;;;;;;100.40;40.35;;;;;;;6.65;100.00;101167.16;4912885;29;20031;-72
2023/01/07 03:30:16;;;;;;;104.40;42.40;;;;;;;6.68;100.00;101155.28;4914692;29;20055;-73
2023/01/07 03:32:45;;;;;;;100.20;38.67;;;;;;;6.79;100.00;101169.56;4912785;29;20118;-73
2023/01/07 03:35:11;;;;;;;110.30;41.40;;;;;;;6.83;100.00;101163.91;4914027;29;20024;-73
2023/01/07 03:37:39;;;;;;;106.90;41.55;;;;;;;6.95;100.00;101157.50;4928761;29;20163;-72
2023/01/07 03:40:09;;;;;;;112.40;43.78;;;;;;;6.99;100.00;101156.28;4912880;29;20028;-73
2023/01/07 03:42:40;;;;;;;121.10;44.65;;;;;;;7.05;100.00;101163.84;4912639;29;20487;-72
2023/01/07 03:45:13;;;;;;;110.47;42.55;;;;;;;7.24;100.00;101158.63;4912777;29;20024;-73
2023/01/07 03:47:43;;;;;;;118.82;45.40;;;;;;;7.08;100.00;101164.44;4915718;29;20068;-73
2023/01/07 03:50:08;;;;;;;106.15;43.63;;;;;;;7.38;100.00;101161.97;4932482;29;20028;-73
2023/01/07 03:52:34;;;;;;;116.85;45.15;;;;;;;7.32;100.00;101161.50;4917110;29;20032;-73
2023/01/07 03:54:59;;;;;;;111.40;43.92;;;;;;;7.51;100.00;101154.56;4916049;29;20032;-73
2023/01/07 03:57:25;;;;;;;112.95;44.90;;;;;;;7.45;100.00;101155.94;4931973;29;20028;-73
2023/01/07 03:59:50;;;;;;;109.78;44.15;;;;;;;7.39;100.00;101144.81;4915775;29;20084;-73
2023/01/07 04:02:15;;;;;;;126.32;47.28;;;;;;;7.37;100.00;101152.16;4916111;29;20157;-73
2023/01/07 04:04:40;;;;;;;124.30;46.90;;;;;;;7.46;100.00;101151.41;4915879;29;20543;-74
2023/01/07 04:07:06;;;;;;;137.95;52.72;;;;;;;7.41;100.00;101148.22;4915840;29;20084;-72
2023/01/07 04:09:31;;;;;;;116.90;46.42;;;;;;;7.50;100.00;101142.06;4922962;29;20027;-72
2023/01/07 04:11:56;;;;;;;134.65;50.22;;;;;;;7.45;100.00;101136.22;4919412;29;20106;-72
2023/01/07 04:14:22;;;;;;;151.23;52.17;;;;;;;7.34;100.00;101127.22;4916909;29;20423;-72
2023/01/07 04:16:50;;;;;;;148.52;52.92;;;;;;;7.31;100.00;101127.47;4915085;29;20456;-74
2023/01/07 04:19:16;;;;;;;150.30;50.25;;;;;;;7.39;100.00;101125.97;4915904;29;20120;-72
2023/01/07 04:21:41;;;;;;;141.32;51.40;;;;;;;7.32;100.00;101122.94;4915229;29;20020;-72
2023/01/07 04:24:07;;;;;;;143.13;52.28;;;;;;;7.32;100.00;101118.41;4936216;29;20027;-73
2023/01/07 04:26:32;;;;;;;140.77;49.30;;;;;;;7.38;100.00;101110.81;4926534;29;20031;-73
2023/01/07 04:28:58;;;;;;;162.77;55.45;;;;;;;7.40;100.00;101119.59;4918233;29;20076;-73
2023/01/07 04:31:23;;;;;;;126.75;47.42;;;;;;;7.57;100.00;101117.16;4917118;29;20090;-73
2023/01/07 04:33:49;;;;;;;111.60;44.40;;;;;;;7.64;100.00;101112.09;4916782;29;20024;-73
2023/01/07 04:36:14;;;;;;;169.75;55.13;;;;;;;7.66;100.00;101115.50;4915570;29;20031;-73
2023/01/07 04:38:39;;;;;;;148.10;53.65;;;;;;;7.58;100.00;101118.00;4915220;29;20068;-73
2023/01/07 04:41:05;;;;;;;123.85;48.25;;;;;;;7.75;100.00;101108.44;4915037;29;20055;-73
2023/01/07 04:43:30;;;;;;;149.82;52.45;;;;;;;7.79;100.00;101110.75;4916565;29;20035;-73
2023/01/07 04:45:56;;;;;;;169.50;55.60;;;;;;;7.71;100.00;101113.25;4916368;29;20115;-74
2023/01/07 04:48:21;;;;;;;156.45;52.78;;;;;;;7.76;100.00;101105.63;4916705;29;20020;-73
2023/01/07 04:50:47;;;;;;;157.85;53.83;;;;;;;7.71;100.00;101097.09;4930730;29;20028;-73
2023/01/07 04:53:13;;;;;;;171.57;55.28;;;;;;;7.75;100.00;101087.72;4917246;29;20119;-74
2023/01/07 04:55:38;;;;;;;158.07;53.47;;;;;;;7.71;100.00;101086.31;4928445;29;20048;-73
2023/01/07 04:58:03;;;;;;;154.60;52.95;;;;;;;7.84;100.00;101092.34;4914355;29;20474;-73
2023/01/07 05:00:29;;;;;;;169.10;56.53;;;;;;;7.77;100.00;101093.88;4914845;29;20032;-74
2023/01/07 05:02:54;;;;;;;178.20;57.83;;;;;;;7.81;100.00;101100.66;4916100;29;20032;-73
2023/01/07 05:05:20;;;;;;;189.35;58.00;;;;;;;7.80;100.00;101096.28;4931053;29;20032;-74
2023/01/07 05:07:45;;;;;;;169.77;56.47;;;;;;;7.81;100.00;101097.97;4915014;29;20020;-73
2023/01/07 05:10:11;;;;;;;171.50;55.97;;;;;;;7.91;100.00;101097.19;4916465;29;20488;-73
2023/01/07 05:12:36;;;;;;;166.55;56.53;;;;;;;7.98;100.00;101098.34;4914578;29;20051;-74
2023/01/07 05:15:03;;;;;;;196.15;60.28;;;;;;;8.01;100.00;101098.06;4914710;29;20163;-73
2023/01/07 05:17:28;;;;;;;186.63;58.40;;;;;;;8.05;100.00;101102.19;4915063;29;20035;-74
2023/01/07 05:19:54;;;;;;;165.15;56.00;;;;;;;7.99;100.00;101100.03;4930422;29;20028;-73
2023/01/07 05:22:19;;;;;;;188.73;58.22;;;;;;;7.93;100.00;101100.59;4914521;29;20039;-71
2023/01/07 05:24:44;;;;;;;153.98;54.78;;;;;;;8.05;100.00;101102.19;4930530;29;20023;-71
2023/01/07 05:27:10;;;;;;;151.85;52.60;;;;;;;8.23;100.00;101097.00;4921905;29;20031;-72
2023/01/07 05:29:35;;;;;;;208.05;63.72;;;;;;;8.23;100.00;101097.88;4916028;29;20024;-72
2023/01/07 05:32:00;;;;;;;184.93;57.30;;;;;;;8.30;100.00;101090.94;4914041;29;20034;-71
2023/01/07 05:34:26;;;;;;;238.05;66.35;;;;;;;8.36;100.00;101098.50;4914343;29;20119;-72
2023/01/07 05:36:52;;;;;;;261.27;69.00;;;;;;;8.32;100.00;101091.63;4930166;29;20024;-69
2023/01/07 05:39:17;;;;;;;219.57;62.95;;;;;;;8.34;100.00;101100.44;4915962;29;20495;-71
2023/01/07 05:41:42;;;;;;;201.60;57.60;;;;;;;8.25;100.00;101093.19;4915576;29;20072;-70
2023/01/07 05:44:08;;;;;;;235.00;63.90;;;;;;;8.34;100.00;101095.03;4914788;29;20115;-71
2023/01/07 05:46:33;;;;;;;220.88;60.53;;;;;;;8.29;100.00;101086.53;4914620;29;20066;-70
2023/01/07 05:48:58;;;;;;;196.98;58.17;;;;;;;8.36;100.00;101087.72;4914750;29;20023;-70
2023/01/07 05:51:24;;;;;;;190.85;57.67;;;;;;;8.43;100.00;101088.00;4913525;29;20058;-70
2023/01/07 05:53:49;;;;;;;228.07;65.57;;;;;;;8.38;100.00;101084.88;4915119;29;20028;-70
2023/01/07 05:56:14;;;;;;;230.88;64.82;;;;;;;8.36;100.00;101082.31;4914256;29;20070;-70
2023/01/07 05:58:40;;;;;;;211.93;62.88;;;;;;;8.38;100.00;101085.72;4930265;29;20119;-70
2023/01/07 06:01:05;;;;;;;205.25;62.22;;;;;;;8.34;100.00;101078.84;4915542;29;20476;-69
2023/01/07 06:03:31;;;;;;;186.90;57.67;;;;;;;8.51;100.00;101090.00;4914477;29;20132;-71
2023/01/07 06:05:56;;;;;;;215.95;61.88;;;;;;;8.51;100.00;101090.00;4915171;29;20043;-70
2023/01/07 06:08:21;;;;;;;218.80;65.18;;;;;;;8.68;100.00;101097.44;4913767;29;20115;-69
2023/01/07 06:10:47;;;;;;;187.32;58.03;;;;;;;8.65;100.00;101086.88;4913350;29;20024;-70
2023/01/07 06:13:12;;;;;;;193.82;61.33;;;;;;;8.78;100.00;101092.88;4914127;29;20060;-72
2023/01/07 06:15:38;;;;;;;188.77;59.17;;;;;;;8.76;100.00;101097.56;4913705;29;20028;-72
2023/01/07 06:18:03;;;;;;;186.95;61.33;;;;;;;8.79;100.00;101094.56;4930328;29;20159;-72
2023/01/07 06:20:33;;;;;;;187.65;61.28;;;;;;;8.76;100.00;101100.25;4933930;29;20027;-72
2023/01/07 06:22:59;;;;;;;224.93;64.18;;;;;;;8.90;100.00;101091.75;4916726;29;20027;-72
2023/01/07 06:25:24;;;;;;;199.63;58.90;;;;;;;9.00;100.00;101097.16;4936091;29;20035;-72
2023/01/07 06:27:49;;;;;;;219.55;62.15;;;;;;;8.95;100.00;101100.28;4935966;29;20089;-71
2023/01/07 06:30:15;;;;;;;207.77;60.20;;;;;;;9.05;100.00;101088.59;4935542;29;20079;-70
2023/01/07 06:32:42;;;;;;;223.82;64.35;;;;;;;8.92;100.00;101089.75;4935815;29;20106;-72
2023/01/07 06:35:09;;;;;;;162.68;55.85;;;;;;;9.00;100.00;101090.88;4951615;29;20023;-71
2023/01/07 06:37:35;;;;;;;149.63;53.15;;;;;;;8.97;100.00;101103.69;4935667;29;20035;-71
2023/01/07 06:40:00;;;;;;;169.27;57.75;;;;;;;9.14;100.00;101093.16;4919607;29;20027;-72
2023/01/07 06:42:26;;;;;;;159.15;53.70;;;;;;;9.11;100.00;101088.03;4933389;29;20035;-72
2023/01/07 06:44:52;;;;;;;172.30;58.25;;;;;;;8.98;100.00;101091.88;4916575;29;20019;-72
2023/01/07 06:47:17;;;;;;;181.55;58.60;;;;;;;9.03;100.00;101085.19;4931805;29;20368;-72
2023/01/07 06:49:42;;;;;;;189.35;60.05;;;;;;;9.13;100.00;101091.47;4916817;29;20028;-72
2023/01/07 06:52:08;;;;;;;171.13;58.83;;;;;;;9.15;100.00;101084.91;4932278;29;20106;-72
2023/01/07 06:54:33;;;;;;;195.60;60.72;;;;;;;9.19;100.00;101096.25;4916702;29;20027;-71
2023/01/07 06:56:58;;;;;;;186.75;61.70;;;;;;;9.22;100.00;101087.88;4932337;29;20490;-72
2023/01/07 06:59:24;;;;;;;180.80;58.97;;;;;;;9.27;100.00;101088.31;4933512;29;20109;-72
2023/01/07 07:01:49;;;;;;;204.90;62.58;;;;;;;9.23;100.00;101093.13;4933152;29;20032;-71
2023/01/07 07:04:15;;;;;;;188.48;58.80;;;;;;;9.29;100.00;101086.31;4932589;29;20015;-72
2023/01/07 07:06:40;;;;;;;196.57;62.47;;;;;;;9.30;100.00;101093.41;4916504;29;20039;-71
2023/01/07 07:09:05;;;;;;;198.63;61.83;;;;;;;9.36;100.00;101090.13;4932491;29;20110;-70
2023/01/07 07:11:31;;;;;;;124.60;50.40;;;;;;;9.49;100.00;101098.78;4933167;29;20415;-72
2023/01/07 07:13:56;;;;;;;177.50;60.45;;;;;;;9.43;100.00;101093.09;4916311;29;20107;-71
2023/01/07 07:16:22;;;;;;;186.27;60.20;;;;;;;9.35;100.00;101090.28;4933388;29;20126;-72
2023/01/07 07:18:48;;;;;;;246.55;66.82;;;;;;;9.30;100.00;101088.00;4916552;29;20062;-72
2023/01/07 07:21:13;;;;;;;106.78;48.50;;;;;;;9.36;100.00;101084.72;4934287;29;20059;-72
2023/01/07 07:23:39;;;;;;;163.25;58.50;;;;;;;9.46;100.00;101082.88;4951626;29;20024;-72
2023/01/07 07:26:04;;;;;;;202.63;62.95;;;;;;;9.47;100.00;101084.56;4936048;29;20032;-70
2023/01/07 07:28:30;;;;;;;148.43;56.88;;;;;;;9.54;100.00;101089.41;4932451;29;20104;-70
2023/01/07 07:30:55;;;;;;;167.20;58.88;;;;;;;9.48;100.00;101080.88;4916912;29;20024;-70
2023/01/07 07:33:21;;;;;;;119.13;50.72;;;;;;;9.58;100.00;101090.78;4901032;29;20036;-70
2023/01/07 07:35:47;;;;;;;136.45;53.67;;;;;;;9.65;100.00;101090.09;4916542;29;20036;-71
2023/01/07 07:38:12;;;;;;;152.95;58.97;;;;;;;9.60;100.00;101084.25;4916629;29;20028;-70
2023/01/07 07:40:37;;;;;;;146.48;57.38;;;;;;;9.62;100.00;101076.00;4900745;29;20059;-69
2023/01/07 07:43:03;;;;;;;103.45;50.83;;;;;;;9.58;100.00;101090.78;4900349;29;20031;-71
2023/01/07 07:45:28;;;;;;;128.40;53.13;;;;;;;9.57;100.00;101089.09;4932403;29;20031;-69
2023/01/07 07:47:53;;;;;;;144.65;57.55;;;;;;;9.67;100.00;101076.41;4900789;29;20036;-70
2023/01/07 07:50:19;;;;;;;128.15;56.85;;;;;;;9.62;100.00;101086.81;4900623;29;20032;-69
2023/01/07 07:52:45;;;;;;;119.55;56.60;;;;;;;9.52;100.00;101079.59;4932369;29;20039;-67
2023/01/07 07:55:10;;;;;;;123.18;55.05;;;;;;;9.49;100.00;101082.56;4901292;29;20032;-68
2023/01/07 07:57:35;;;;;;;154.13;62.00;;;;;;;9.72;100.00;101085.78;4947148;28;20102;-71
2023/01/07 08:00:01;;;;;;;149.07;59.17;;;;;;;9.77;100.00;101079.91;4920450;29;20076;-70
2023/01/07 08:02:26;;;;;;;140.52;57.38;;;;;;;9.83;100.00;101084.72;4908969;29;20034;-67
2023/01/07 08:04:52;;;;;;;167.23;62.25;;;;;;;9.81;100.00;101078.63;4911959;29;20024;-69
2023/01/07 08:07:17;;;;;;;108.13;51.65;;;;;;;9.76;100.00;101078.22;4917297;29;20105;-68
2023/01/07 08:09:42;;;;;;;141.85;58.47;;;;;;;9.82;100.00;101072.22;4950878;29;20095;-68
2023/01/07 08:12:08;;;;;;;115.90;53.22;;;;;;;9.91;100.00;101082.16;4942859;28;20031;-68
2023/01/07 08:14:33;;;;;;;109.30;53.33;;;;;;;9.84;100.00;101081.03;4951070;28;20035;-68
2023/01/07 08:16:58;;;;;;;115.43;52.17;;;;;;;9.87;100.00;101078.03;4941382;29;20036;-69
2023/01/07 08:19:24;;;;;;;108.13;52.13;;;;;;;10.01;100.00;101077.53;4925138;29;20027;-69
2023/01/07 08:21:52;;;;;;;133.52;55.13;;;;;;;9.94;100.00;101081.84;4923338;29;20035;-69
2023/01/07 08:24:17;;;;;;;124.28;55.80;;;;;;;9.89;100.00;101073.31;4944021;28;20035;-69
2023/01/07 08:26:43;;;;;;;136.68;56.30;;;;;;;9.84;100.00;101075.63;4926144;29;20028;-69
2023/01/07 08:29:08;;;;;;;127.88;54.20;;;;;;;10.02;100.00;101068.41;4917323;29;20105;-69
2023/01/07 08:31:33;;;;;;;105.82;49.75;;;;;;;9.80;100.00;101058.00;4914852;29;20383;-68
2023/01/07 08:33:59;;;;;;;116.78;53.58;;;;;;;9.95;100.00;101067.31;4930618;29;20056;-68
2023/01/07 08:36:24;;;;;;;115.32;53.88;;;;;;;9.96;100.00;101063.59;4939630;28;20040;-68
2023/01/07 08:38:51;;;;;;;116.40;54.03;;;;;;;9.86;100.00;101059.25;4926651;29;20083;-69
2023/01/07 08:41:16;;;;;;;97.35;50.65;;;;;;;9.93;100.00;101063.91;4929285;29;20476;-69
2023/01/07 08:43:43;;;;;;;92.30;50.20;;;;;;;9.87;100.00;101048.28;4939066;28;20024;-69
2023/01/07 08:46:09;;;;;;;105.72;52.90;;;;;;;9.81;100.00;101043.47;4913067;29;20083;-69
2023/01/07 08:48:34;;;;;;;107.30;54.20;;;;;;;9.87;100.00;101048.28;4930814;29;20032;-69
2023/01/07 08:51:00;;;;;;;108.38;53.40;;;;;;;9.79;100.00;101050.88;4930068;29;20040;-68
2023/01/07 08:53:25;;;;;;;99.82;50.72;;;;;;;9.85;100.00;101044.88;4946056;28;20028;-69
2023/01/07 08:55:51;;;;;;;118.93;55.50;;;;;;;9.92;100.00;101046.00;4914547;29;20036;-69
2023/01/07 08:58:16;;;;;;;99.35;50.35;;;;;;;10.02;100.00;101048.63;4914174;29;20032;-69
2023/01/07 09:00:41;;;;;;;105.78;53.72;;;;;;;9.90;100.00;101053.38;4914156;29;20020;-70
2023/01/07 09:03:07;;;;;;;100.22;51.72;;;;;;;9.81;100.00;101054.28;4914444;29;20036;-70
2023/01/07 09:05:32;;;;;;;105.93;52.58;;;;;;;9.97;100.00;101049.06;4914966;29;20035;-69
2023/01/07 09:07:58;;;;;;;89.47;49.42;;;;;;;9.95;100.00;101045.69;4912638;29;20071;-69
2023/01/07 09:10:24;;;;;;;93.78;48.72;;;;;;;9.90;100.00;101042.56;4914230;29;20427;-69
2023/01/07 09:12:49;;;;;;;114.82;54.15;;;;;;;9.91;100.00;101043.41;4927513;29;20024;-69
2023/01/07 09:15:15;;;;;;;95.43;52.00;;;;;;;9.85;100.00;101044.88;4905294;29;20054;-70
2023/01/07 09:17:40;;;;;;;80.38;46.88;;;;;;;9.88;100.00;101049.97;4920590;29;20035;-69
2023/01/07 09:20:06;;;;;;;78.40;44.13;;;;;;;9.86;100.00;101038.47;4926645;29;20035;-70
2023/01/07 09:22:34;;;;;;;66.95;40.85;;;;;;;9.75;100.00;101044.06;4937212;29;20031;-70
2023/01/07 09:25:00;;;;;;;68.88;40.30;;;;;;;9.75;100.00;101038.66;4945960;29;20090;-70
2023/01/07 09:27:26;;;;;;;66.05;38.60;;;;;;;9.78;100.00;101041.09;4939578;28;20031;-70
2023/01/07 09:29:52;;;;;;;69.88;38.92;;;;;;;9.94;100.00;101054.78;4914536;29;20419;-70
2023/01/07 09:32:18;;;;;;;57.78;36.38;;;;;;;9.76;100.00;101051.16;4922300;29;20054;-68
2023/01/07 09:34:44;;;;;;;52.95;30.42;;;;;;;9.77;100.00;101051.00;4929711;29;20031;-68
2023/01/07 09:37:09;;;;;;;44.08;29.35;;;;;;;9.91;100.00;101048.81;4919356;29;20398;-68
2023/01/07 09:39:34;;;;;;;51.40;31.23;;;;;;;10.03;100.00;101053.88;4914744;29;20050;-68
2023/01/07 09:42:11;;;;;;;40.88;28.15;;;;;;;10.04;100.00;101042.09;4938351;28;20027;-69
2023/01/07 09:45:02;;;;;;;41.35;28.40;;;;;;;10.01;100.00;101039.66;4906294;29;20034;-69
2023/01/07 09:47:28;;;;;;;42.75;24.60;;;;;;;10.03;100.00;101044.91;4919720;29;20022;-69
2023/01/07 09:50:02;;;;;;;31.00;21.45;;;;;;;10.22;100.00;101035.84;4930091;29;20040;-69
2023/01/07 09:52:59;;;;;;;27.02;18.92;;;;;;;10.16;100.00;101036.44;4913932;29;20071;-69
2023/01/07 09:55:35;;;;;;;31.55;19.98;;;;;;;10.14;100.00;101033.06;4915551;29;20039;-70
2023/01/07 09:58:02;;;;;;;27.08;18.40;;;;;;;10.30;100.00;101034.13;4925165;29;20114;-68
2023/01/07 10:00:29;;;;;;;24.45;16.50;;;;;;;10.37;100.00;101023.56;4946137;29;20035;-70
2023/01/07 10:03:15;;;;;;;27.38;15.02;;;;;;;10.40;100.00;101028.63;4921515;29;20102;-69
2023/01/07 10:06:13;;;;;;;19.17;12.55;;;;;;;10.57;100.00;101008.84;4908826;29;20024;-69
2023/01/07 10:08:53;;;;;;;14.32;10.85;;;;;;;10.52;100.00;101016.59;4916532;29;20047;-70
2023/01/07 10:11:33;;;;;;;14.13;9.95;;;;;;;10.37;100.00;101012.72;4929499;29;20051;-70
2023/01/07 10:14:17;;;;;;;16.45;9.98;;;;;;;10.53;100.00;101012.88;4943323;28;20024;-70
2023/01/07 10:16:51;;;;;;;12.98;9.25;;;;;;;10.44;100.00;101019.22;4930621;29;20035;-70
2023/01/07 10:19:31;;;;;;;12.32;7.28;;;;;;;10.40;100.00;101012.41;4931946;29;20034;-69
2023/01/07 10:22:01;;;;;;;11.13;6.90;;;;;;;10.40;100.00;101012.41;4917937;29;20024;-70
2023/01/07 10:24:33;;;;;;;9.02;6.95;;;;;;;10.45;100.00;101015.50;4916029;29;20066;-70
2023/01/07 10:27:11;;;;;;;9.13;6.22;;;;;;;10.44;100.00;101007.53;4915985;29;20074;-70
2023/01/07 10:29:43;;;;;;;11.23;5.15;;;;;;;10.39;100.00;101008.00;4931802;29;20432;-70
2023/01/07 10:32:14;;;;;;;10.25;5.20;;;;;;;10.52;100.00;101011.16;4932045;29;20034;-70
2023/01/07 10:34:48;;;;;;;9.32;4.60;;;;;;;10.43;100.00;101012.09;4940143;29;20020;-70
2023/01/07 10:37:25;;;;;;;9.68;4.65;;;;;;;10.52;100.00;101011.16;4931776;29;20055;-70
2023/01/07 10:40:10;;;;;;;6.30;4.63;;;;;;;10.48;100.00;100998.94;4915872;29;20565;-70
2023/01/07 10:42:51;;;;;;;5.65;4.10;;;;;;;10.59;100.00;101001.41;4948570;28;20019;-70
2023/01/07 10:45:55;;;;;;;14.15;4.43;;;;;;;10.69;100.00;101003.19;4926888;29;20415;-70
2023/01/07 10:48:38;;;;;;;7.03;4.20;;;;;;;10.67;100.00;101002.50;4928478;29;20043;-70
2023/01/07 10:51:14;;;;;;;6.78;4.22;;;;;;;10.62;100.00;100988.56;4916161;29;20028;-70
2023/01/07 10:54:18;;;;;;;8.90;3.72;;;;;;;10.66;100.00;100989.97;4928439;29;20020;-69
2023/01/07 10:56:49;;;;;;;6.63;3.72;;;;;;;10.70;100.00;100991.38;4944088;29;20026;-70
2023/01/07 10:59:20;;;;;;;10.10;4.10;;;;;;;10.75;100.00;100989.03;4920140;29;20024;-70
2023/01/07 11:01:55;;;;;;;9.00;3.53;;;;;;;10.80;100.00;100971.28;4919652;29;20106;-70
2023/01/07 11:04:20;;;;;;;5.50;3.75;;;;;;;10.70;100.00;100980.53;4919679;29;20275;-71
2023/01/07 11:06:48;;;;;;;4.15;3.17;;;;;;;10.70;100.00;100980.53;4919637;29;20024;-70
2023/01/07 11:09:29;;;;;;;9.55;3.92;;;;;;;10.57;100.00;100979.06;4919700;29;20118;-71
2023/01/07 11:11:59;;;;;;;6.70;3.10;;;;;;;10.57;100.00;100973.66;4935939;29;20406;-71
2023/01/07 11:14:31;;;;;;;6.55;3.00;;;;;;;10.54;100.00;100976.66;4938028;29;20108;-71